createdAt,value
2018-10-09T00:02:17.938Z,81.30
2018-10-09T00:04:47.226Z,80.77
2018-10-09T00:07:16.440Z,86.00
2018-10-09T00:09:45.706Z,79.33
2018-10-09T00:12:15.050Z,78.87
2018-10-09T00:14:45.909Z,79.00
2018-10-09T00:17:15.150Z,78.67
2018-10-09T00:19:44.377Z,76.23
2018-10-09T00:22:13.733Z,78.10
2018-10-09T00:24:43.093Z,76.87
2018-10-09T00:27:12.348Z,77.00
2018-10-09T00:29:41.715Z,70.10
2018-10-09T00:32:10.958Z,75.53
2018-10-09T00:34:40.358Z,76.77
2018-10-09T00:37:09.755Z,76.20
2018-10-09T00:39:38.986Z,78.80
2018-10-09T00:42:07.809Z,74.53
2018-10-09T00:44:36.994Z,72.40
2018-10-09T00:47:06.262Z,76.40
2018-10-09T00:49:35.735Z,67.50
2018-10-09T00:52:04.906Z,75.30
2018-10-09T00:54:34.087Z,75.37
2018-10-09T00:57:03.356Z,82.13
2018-10-09T00:59:32.535Z,81.50
2018-10-09T01:02:01.681Z,71.70
2018-10-09T01:04:30.976Z,84.40
2018-10-09T01:06:59.866Z,82.30
2018-10-09T01:09:29.029Z,80.80
2018-10-09T01:11:58.205Z,81.43
2018-10-09T01:14:27.365Z,86.37
2018-10-09T01:16:56.507Z,84.60
2018-10-09T01:19:25.774Z,84.87
2018-10-09T01:21:54.913Z,88.67
2018-10-09T01:24:24.061Z,82.83
2018-10-09T01:26:53.194Z,84.37
2018-10-09T01:29:22.330Z,82.80
2018-10-09T01:31:51.494Z,83.33
2018-10-09T01:34:20.772Z,101.73
2018-10-09T01:36:49.929Z,99.23
2018-10-09T01:39:19.227Z,91.57
2018-10-09T01:41:48.365Z,88.93
2018-10-09T01:44:17.983Z,95.63
2018-10-09T01:46:47.205Z,87.87
2018-10-09T01:49:16.481Z,85.33
2018-10-09T01:51:45.797Z,90.27
2018-10-09T01:54:15.007Z,82.90
2018-10-09T01:56:44.406Z,88.00
2018-10-09T01:59:13.665Z,83.13
2018-10-09T02:01:43.282Z,79.37
2018-10-09T02:04:18.293Z,84.77
2018-10-09T02:06:47.539Z,68.90
2018-10-09T02:09:16.781Z,84.17
2018-10-09T02:11:45.962Z,84.00
2018-10-09T02:14:15.453Z,77.87
2018-10-09T02:16:44.623Z,88.50
2018-10-09T02:19:15.330Z,81.30
2018-10-09T02:21:46.594Z,84.47
2018-10-09T02:24:16.098Z,81.20
2018-10-09T02:26:44.870Z,73.43
2018-10-09T02:29:14.058Z,87.67
2018-10-09T02:31:43.327Z,85.90
2018-10-09T02:34:12.485Z,83.20
2018-10-09T02:36:41.629Z,89.47
2018-10-09T02:39:12.042Z,80.97
2018-10-09T02:41:41.194Z,76.67
2018-10-09T02:44:10.838Z,80.37
2018-10-09T02:46:40.006Z,85.03
2018-10-09T02:49:09.209Z,88.93
2018-10-09T02:51:38.350Z,93.50
2018-10-09T02:54:07.771Z,79.97
2018-10-09T02:56:37.457Z,83.23
2018-10-09T02:59:06.949Z,90.17
2018-10-09T03:01:36.106Z,88.57
2018-10-09T03:04:05.397Z,91.43
2018-10-09T03:06:34.801Z,91.70
2018-10-09T03:09:05.286Z,96.53
2018-10-09T03:11:34.495Z,99.00
2018-10-09T03:14:03.962Z,91.93
2018-10-09T03:16:33.115Z,94.90
2018-10-09T03:19:02.626Z,94.00
2018-10-09T03:21:31.845Z,87.70
2018-10-09T03:24:01.371Z,89.30
2018-10-09T03:26:30.573Z,90.13
2018-10-09T03:28:59.689Z,97.20
2018-10-09T03:31:28.871Z,83.37
2018-10-09T03:33:58.093Z,87.13
2018-10-09T03:36:27.199Z,89.90
2018-10-09T03:38:56.353Z,80.10
2018-10-09T03:41:25.900Z,86.93
2018-10-09T03:43:55.241Z,94.13
2018-10-09T03:46:24.398Z,80.53
2018-10-09T03:48:53.538Z,85.23
2018-10-09T03:51:23.038Z,86.77
2018-10-09T03:53:52.173Z,74.73
2018-10-09T03:56:21.495Z,78.17
2018-10-09T03:58:50.605Z,82.57
2018-10-09T04:01:23.830Z,77.87
2018-10-09T04:03:52.982Z,79.67
2018-10-09T04:06:22.123Z,83.20
2018-10-09T04:08:51.481Z,83.97
2018-10-09T04:11:20.877Z,88.33
2018-10-09T04:13:50.197Z,82.77
2018-10-09T04:16:20.125Z,90.57
2018-10-09T04:18:49.993Z,95.97
2018-10-09T04:21:20.794Z,96.10
2018-10-09T04:23:50.397Z,94.57
2018-10-09T04:26:19.759Z,96.77
2018-10-09T04:28:49.077Z,105.73
2018-10-09T04:31:18.202Z,94.90
2018-10-09T04:33:47.333Z,109.03
2018-10-09T04:36:16.510Z,110.17
2018-10-09T04:38:45.685Z,133.80
2018-10-09T04:41:14.848Z,102.27
2018-10-09T04:43:44.578Z,105.73
2018-10-09T04:46:13.709Z,92.20
2018-10-09T04:48:42.841Z,96.03
2018-10-09T04:51:12.037Z,99.80
2018-10-09T04:53:41.302Z,99.40
2018-10-09T04:56:10.426Z,94.80
2018-10-09T04:58:39.559Z,92.10
2018-10-09T05:01:08.690Z,92.70
2018-10-09T05:03:38.091Z,89.60
2018-10-09T05:06:07.519Z,86.57
2018-10-09T05:08:37.029Z,85.10
2018-10-09T05:11:06.357Z,83.13
2018-10-09T05:13:35.720Z,83.90
2018-10-09T05:16:08.065Z,85.93
2018-10-09T05:18:37.511Z,77.47
2018-10-09T05:21:06.894Z,79.07
2018-10-09T05:23:37.517Z,75.77
2018-10-09T05:26:07.061Z,74.67
2018-10-09T05:28:36.980Z,71.90
2018-10-09T05:31:06.108Z,70.67
2018-10-09T05:33:35.254Z,71.37
2018-10-09T05:36:05.013Z,70.73
2018-10-09T05:38:34.121Z,66.10
2018-10-09T05:41:03.287Z,60.20
2018-10-09T05:43:32.386Z,61.50
2018-10-09T05:46:01.490Z,61.27
2018-10-09T05:48:32.255Z,52.33
2018-10-09T05:51:02.050Z,54.13
2018-10-09T05:53:31.055Z,50.60
2018-10-09T05:56:00.249Z,46.50
2018-10-09T05:58:29.401Z,53.13
2018-10-09T06:00:58.516Z,50.10
2018-10-09T06:03:27.930Z,46.37
2018-10-09T06:05:57.151Z,47.07
2018-10-09T06:08:26.345Z,45.57
2018-10-09T06:10:55.714Z,44.10
2018-10-09T06:13:25.638Z,45.27
2018-10-09T06:15:54.634Z,47.97
2018-10-09T06:18:24.644Z,40.40
2018-10-09T06:20:54.045Z,41.37
2018-10-09T06:23:22.925Z,42.30
2018-10-09T06:25:52.146Z,38.20
2018-10-09T06:28:21.312Z,37.83
2018-10-09T06:30:50.458Z,37.60
2018-10-09T06:33:19.562Z,40.67
2018-10-09T06:35:48.758Z,37.87
2018-10-09T06:38:17.889Z,36.53
2018-10-09T06:40:47.264Z,37.53
2018-10-09T06:43:16.301Z,37.63
2018-10-09T06:45:45.427Z,35.77
2018-10-09T06:48:14.533Z,37.93
2018-10-09T06:50:43.614Z,34.50
2018-10-09T06:53:12.990Z,37.63
2018-10-09T06:55:41.790Z,36.73
2018-10-09T06:58:11.231Z,33.47
2018-10-09T07:00:39.997Z,35.00
2018-10-09T07:03:09.363Z,34.90
2018-10-09T07:05:38.433Z,34.23
2018-10-09T07:08:07.654Z,36.40
2018-10-09T07:10:36.833Z,35.10
2018-10-09T07:13:06.890Z,36.37
2018-10-09T07:15:36.213Z,35.73
2018-10-09T07:18:13.242Z,34.27
2018-10-09T07:20:42.387Z,36.20
2018-10-09T07:23:11.501Z,36.30
2018-10-09T07:25:40.626Z,34.97
2018-10-09T07:28:09.794Z,36.80
2018-10-09T07:30:38.893Z,34.80
2018-10-09T07:33:08.013Z,36.37
2018-10-09T07:35:37.738Z,33.60
2018-10-09T07:38:07.014Z,31.03
2018-10-09T07:40:36.121Z,38.70
2018-10-09T07:43:05.299Z,36.13
2018-10-09T07:45:34.406Z,32.57
2018-10-09T07:48:03.534Z,35.47
2018-10-09T07:50:32.898Z,34.60
2018-10-09T07:53:02.181Z,36.13
2018-10-09T07:55:31.662Z,35.07
2018-10-09T07:58:01.159Z,34.70
2018-10-09T08:00:30.357Z,35.37
2018-10-09T08:02:59.640Z,34.80
2018-10-09T08:05:28.369Z,34.77
2018-10-09T08:07:57.673Z,32.97
2018-10-09T08:10:27.673Z,35.37
2018-10-09T08:12:56.907Z,34.10
2018-10-09T08:15:26.075Z,36.40
2018-10-09T08:17:55.278Z,34.27
2018-10-09T08:20:24.483Z,33.50
2018-10-09T08:22:53.703Z,32.17
2018-10-09T08:25:22.762Z,34.50
2018-10-09T08:27:52.074Z,33.83
2018-10-09T08:30:21.970Z,32.60
2018-10-09T08:32:51.354Z,32.97
2018-10-09T08:35:20.489Z,34.50
2018-10-09T08:37:50.734Z,35.80
2018-10-09T08:40:19.947Z,38.50
2018-10-09T08:42:49.053Z,37.63
2018-10-09T08:45:18.183Z,35.87
2018-10-09T08:47:47.534Z,32.07
2018-10-09T08:50:16.713Z,37.37
2018-10-09T08:52:45.893Z,40.10
2018-10-09T08:55:15.058Z,40.47
2018-10-09T08:57:44.662Z,39.10
2018-10-09T09:00:13.785Z,38.17
2018-10-09T09:02:42.955Z,38.80
2018-10-09T09:05:12.082Z,39.17
2018-10-09T09:07:41.338Z,37.20
2018-10-09T09:10:10.489Z,37.60
2018-10-09T09:12:39.625Z,38.70
2018-10-09T09:15:09.504Z,37.80
2018-10-09T09:17:39.209Z,37.63
2018-10-09T09:20:08.339Z,39.57
2018-10-09T09:22:37.438Z,41.80
2018-10-09T09:25:06.669Z,37.00
2018-10-09T09:27:35.850Z,41.60
2018-10-09T09:30:05.414Z,40.40
2018-10-09T09:32:34.571Z,42.30
2018-10-09T09:35:03.702Z,41.07
2018-10-09T09:37:32.878Z,41.53
2018-10-09T09:40:02.042Z,42.50
2018-10-09T09:42:31.207Z,40.80
2018-10-09T09:45:00.547Z,43.40
2018-10-09T09:47:29.649Z,39.80
2018-10-09T09:49:59.022Z,40.73
2018-10-09T09:52:28.173Z,41.67
2018-10-09T09:54:57.317Z,40.37
2018-10-09T09:57:26.994Z,39.90
2018-10-09T09:59:56.365Z,39.53
2018-10-09T10:02:25.626Z,38.40
2018-10-09T10:04:55.231Z,39.13
2018-10-09T10:07:24.665Z,39.40
2018-10-09T10:09:54.274Z,38.00
2018-10-09T10:12:23.390Z,40.17
2018-10-09T10:14:53.246Z,39.40
2018-10-09T10:17:22.412Z,38.70
2018-10-09T10:19:51.525Z,40.30
2018-10-09T10:22:21.354Z,42.00
2018-10-09T10:24:50.570Z,40.47
2018-10-09T10:27:19.697Z,40.40
2018-10-09T10:29:49.381Z,40.20
2018-10-09T10:32:18.563Z,41.80
2018-10-09T10:34:47.691Z,41.07
2018-10-09T10:37:17.000Z,41.27
2018-10-09T10:39:46.191Z,38.30
2018-10-09T10:42:15.408Z,35.87
2018-10-09T10:44:45.064Z,37.07
2018-10-09T10:47:14.255Z,31.30
2018-10-09T10:49:43.387Z,32.77
2018-10-09T10:52:12.450Z,30.17
2018-10-09T10:54:42.178Z,30.87
2018-10-09T10:57:11.462Z,29.20
2018-10-09T10:59:41.114Z,28.53
2018-10-09T11:02:10.621Z,28.13
2018-10-09T11:04:40.606Z,26.10
2018-10-09T11:07:10.509Z,32.20
2018-10-09T11:09:40.282Z,31.80
2018-10-09T11:12:11.982Z,31.73
2018-10-09T11:14:41.941Z,32.97
2018-10-09T11:17:11.833Z,32.70
2018-10-09T11:19:44.624Z,29.20
2018-10-09T11:22:13.497Z,29.93
2018-10-09T11:24:43.397Z,28.00
2018-10-09T11:27:13.547Z,29.60
2018-10-09T11:29:42.441Z,32.50
2018-10-09T11:32:11.971Z,32.37
2018-10-09T11:34:42.778Z,30.80
2018-10-09T11:37:12.625Z,32.90
2018-10-09T11:39:41.966Z,29.57
2018-10-09T11:42:11.102Z,31.27
2018-10-09T11:44:40.399Z,30.77
2018-10-09T11:47:09.954Z,29.83
2018-10-09T11:49:39.898Z,30.40
2018-10-09T11:52:09.639Z,31.20
2018-10-09T11:54:39.317Z,26.30
2018-10-09T11:57:08.453Z,30.33
2018-10-09T11:59:37.734Z,28.13
2018-10-09T12:02:06.923Z,30.40
2018-10-09T12:04:36.541Z,27.63
2018-10-09T12:07:05.678Z,25.03
2018-10-09T12:09:34.986Z,24.90
2018-10-09T12:12:04.104Z,24.50
2018-10-09T12:14:33.295Z,25.47
2018-10-09T12:17:01.991Z,25.43
2018-10-09T12:19:31.125Z,26.80
2018-10-09T12:22:00.866Z,25.30
2018-10-09T12:24:30.909Z,23.17
2018-10-09T12:27:00.382Z,24.60
2018-10-09T12:29:29.450Z,25.47
2018-10-09T12:31:58.566Z,23.53
2018-10-09T12:34:27.714Z,24.00
2018-10-09T12:36:58.478Z,25.43
2018-10-09T12:39:28.258Z,25.17
2018-10-09T12:41:56.933Z,22.33
2018-10-09T12:44:26.741Z,22.40
2018-10-09T12:46:55.833Z,22.73
2018-10-09T12:49:24.935Z,22.43
2018-10-09T12:51:54.038Z,22.37
2018-10-09T12:54:23.121Z,20.53
2018-10-09T12:56:52.250Z,21.07
2018-10-09T12:59:21.390Z,21.97
2018-10-09T13:01:50.504Z,20.70
2018-10-09T13:04:19.599Z,22.23
2018-10-09T13:06:48.752Z,20.70
2018-10-09T13:09:18.147Z,21.67
2018-10-09T13:11:47.225Z,22.00
2018-10-09T13:14:23.051Z,22.13
2018-10-09T13:16:52.805Z,23.07
2018-10-09T13:19:21.986Z,23.33
2018-10-09T13:21:51.253Z,22.23
2018-10-09T13:24:20.853Z,22.10
2018-10-09T13:26:50.047Z,21.77
2018-10-09T13:29:19.391Z,21.70
2018-10-09T13:31:49.850Z,21.57
2018-10-09T13:34:19.646Z,22.53
2018-10-09T13:36:49.353Z,21.50
2018-10-09T13:39:18.562Z,23.27
2018-10-09T13:41:47.671Z,22.93
2018-10-09T13:44:16.835Z,24.00
2018-10-09T13:46:45.021Z,22.70
2018-10-09T13:49:14.319Z,21.73
2018-10-09T13:51:43.462Z,23.60
2018-10-09T13:54:12.690Z,22.37
2018-10-09T13:56:42.768Z,20.90
2018-10-09T13:59:11.893Z,22.30
2018-10-09T14:01:41.021Z,22.70
2018-10-09T14:04:10.168Z,21.90
2018-10-09T14:06:39.642Z,20.37
2018-10-09T14:09:10.877Z,21.60
2018-10-09T14:11:40.227Z,20.30
2018-10-09T14:14:09.751Z,20.17
2018-10-09T14:16:40.217Z,21.17
2018-10-09T14:19:10.074Z,20.53
2018-10-09T14:21:39.206Z,21.83
2018-10-09T14:24:08.337Z,22.67
2018-10-09T14:26:38.107Z,21.80
2018-10-09T14:29:07.205Z,20.23
2018-10-09T14:31:36.325Z,18.03
2018-10-09T14:34:05.918Z,21.70
2018-10-09T14:36:35.824Z,19.70
2018-10-09T14:39:10.091Z,20.00
2018-10-09T14:41:39.218Z,20.23
2018-10-09T14:44:08.895Z,18.60
2018-10-09T14:46:38.382Z,18.13
2018-10-09T14:49:07.916Z,17.90
2018-10-09T14:51:37.432Z,16.43
2018-10-09T14:54:07.355Z,17.90
2018-10-09T14:56:36.882Z,15.10
2018-10-09T14:59:06.551Z,14.23
2018-10-09T15:01:35.878Z,12.67
2018-10-09T15:04:07.055Z,13.83
2018-10-09T15:06:36.543Z,12.50
2018-10-09T15:09:09.975Z,12.97
2018-10-09T15:11:39.354Z,14.13
2018-10-09T15:14:08.590Z,13.63
2018-10-09T15:16:37.995Z,13.00
2018-10-09T15:19:08.081Z,14.93
2018-10-09T15:21:37.150Z,15.57
2018-10-09T15:24:06.958Z,15.63
2018-10-09T15:26:36.717Z,15.73
2018-10-09T15:29:06.661Z,15.23
2018-10-09T15:31:35.845Z,17.47
2018-10-09T15:34:05.598Z,16.97
2018-10-09T15:36:35.421Z,15.97
2018-10-09T15:39:09.976Z,17.20
2018-10-09T15:41:39.512Z,15.93
2018-10-09T15:44:09.369Z,16.10
2018-10-09T15:46:38.696Z,15.20
2018-10-09T15:49:08.521Z,16.90
2018-10-09T15:51:38.602Z,16.40
2018-10-09T15:54:07.724Z,15.90
2018-10-09T15:56:37.027Z,16.03
2018-10-09T15:59:06.729Z,16.97
2018-10-09T16:01:35.938Z,17.00
2018-10-09T16:04:05.105Z,19.83
2018-10-09T16:06:34.447Z,18.50
2018-10-09T16:09:05.873Z,17.87
2018-10-09T16:11:39.279Z,19.53
2018-10-09T16:14:09.194Z,17.80
2018-10-09T16:16:38.750Z,21.17
2018-10-09T16:19:11.069Z,20.43
2018-10-09T16:21:40.562Z,19.77
2018-10-09T16:24:10.819Z,21.37
2018-10-09T16:26:40.205Z,22.57
2018-10-09T16:29:09.402Z,23.83
2018-10-09T16:31:38.550Z,24.13
2018-10-09T16:34:07.675Z,24.30
2018-10-09T16:36:38.155Z,26.10
2018-10-09T16:39:10.742Z,26.47
2018-10-09T16:41:40.217Z,25.43
2018-10-09T16:44:10.095Z,25.67
2018-10-09T16:46:39.242Z,26.90
2018-10-09T16:49:08.450Z,28.00
2018-10-09T16:51:37.607Z,27.93
2018-10-09T16:54:07.061Z,27.13
2018-10-09T16:56:36.790Z,28.27
2018-10-09T16:59:05.939Z,28.00
2018-10-09T17:01:35.622Z,29.13
2018-10-09T17:04:05.261Z,29.30
2018-10-09T17:06:35.185Z,29.97
2018-10-09T17:09:08.315Z,27.20
2018-10-09T17:11:37.987Z,34.60
2018-10-09T17:14:06.961Z,32.80
2018-10-09T17:16:36.290Z,34.40
2018-10-09T17:19:04.932Z,32.67
2018-10-09T17:21:34.138Z,32.50
2018-10-09T17:24:03.949Z,32.27
2018-10-09T17:26:33.577Z,31.23
2018-10-09T17:29:02.597Z,34.70
2018-10-09T17:31:31.722Z,34.80
2018-10-09T17:34:02.530Z,34.40
2018-10-09T17:36:37.309Z,33.67
2018-10-09T17:39:10.259Z,35.03
2018-10-09T17:41:39.993Z,31.73
2018-10-09T17:44:09.330Z,34.60
2018-10-09T17:46:39.252Z,34.70
2018-10-09T17:49:08.485Z,33.90
2018-10-09T17:51:37.871Z,32.03
2018-10-09T17:54:07.030Z,32.23
2018-10-09T17:56:36.586Z,34.43
2018-10-09T17:59:05.703Z,34.07
2018-10-09T18:01:36.718Z,33.73
2018-10-09T18:04:05.847Z,37.13
2018-10-09T18:06:35.451Z,35.93
2018-10-09T18:09:08.256Z,34.43
2018-10-09T18:11:37.468Z,36.40
2018-10-09T18:14:06.782Z,33.03
2018-10-09T18:16:35.902Z,33.53
2018-10-09T18:19:04.746Z,34.20
2018-10-09T18:21:34.745Z,33.90
2018-10-09T18:24:04.491Z,34.50
2018-10-09T18:26:33.590Z,33.70
2018-10-09T18:29:02.772Z,34.67
2018-10-09T18:31:32.098Z,36.87
2018-10-09T18:34:02.067Z,35.47
2018-10-09T18:36:31.175Z,38.10
2018-10-09T18:39:01.059Z,31.93
2018-10-09T18:41:30.284Z,34.83
2018-10-09T18:43:59.344Z,30.80
2018-10-09T18:46:28.420Z,37.20
2018-10-09T18:48:57.606Z,37.53
2018-10-09T18:51:26.832Z,35.53
2018-10-09T18:53:55.908Z,38.47
2018-10-09T18:56:27.708Z,39.07
2018-10-09T18:58:57.113Z,40.10
2018-10-09T19:01:26.422Z,38.13
2018-10-09T19:03:55.566Z,39.13
2018-10-09T19:06:24.718Z,36.67
2018-10-09T19:08:53.900Z,36.87
2018-10-09T19:11:27.239Z,39.30
2018-10-09T19:13:57.238Z,38.60
2018-10-09T19:16:26.713Z,40.80
2018-10-09T19:18:55.857Z,38.47
2018-10-09T19:21:24.565Z,41.90
2018-10-09T19:23:53.802Z,40.07
2018-10-09T19:26:22.962Z,41.70
2018-10-09T19:28:52.058Z,40.13
2018-10-09T19:31:21.165Z,41.87
2018-10-09T19:33:50.265Z,42.93
2018-10-09T19:36:19.413Z,41.73
2018-10-09T19:38:48.571Z,40.80
2018-10-09T19:41:17.752Z,43.53
2018-10-09T19:43:46.910Z,39.33
2018-10-09T19:46:16.047Z,43.07
2018-10-09T19:48:45.154Z,42.33
2018-10-09T19:51:14.340Z,45.20
2018-10-09T19:53:43.714Z,45.77
2018-10-09T19:56:12.870Z,45.30
2018-10-09T19:58:41.965Z,41.47
2018-10-09T20:01:11.096Z,46.43
2018-10-09T20:03:39.890Z,43.13
2018-10-09T20:06:09.246Z,45.53
2018-10-09T20:08:38.431Z,41.80
2018-10-09T20:11:09.632Z,45.67
2018-10-09T20:13:38.775Z,42.03
2018-10-09T20:16:08.844Z,46.50
2018-10-09T20:18:38.126Z,46.67
2018-10-09T20:21:08.353Z,47.90
2018-10-09T20:23:37.730Z,50.70
2018-10-09T20:26:06.730Z,53.70
2018-10-09T20:28:36.033Z,53.20
2018-10-09T20:31:05.192Z,49.77
2018-10-09T20:33:34.345Z,50.20
2018-10-09T20:36:04.007Z,51.00
2018-10-09T20:38:33.370Z,53.53
2018-10-09T20:41:03.189Z,53.73
2018-10-09T20:43:32.464Z,51.10
2018-10-09T20:46:01.706Z,52.20
2018-10-09T20:48:31.857Z,57.80
2018-10-09T20:51:00.901Z,56.37
2018-10-09T20:53:30.003Z,51.20
2018-10-09T20:55:59.122Z,58.23
2018-10-09T20:58:28.295Z,53.87
2018-10-09T21:00:57.438Z,50.93
2018-10-09T21:03:27.353Z,51.87
2018-10-09T21:05:56.793Z,52.27
2018-10-09T21:08:25.960Z,55.63
2018-10-09T21:10:55.157Z,51.57
2018-10-09T21:13:24.870Z,52.80
2018-10-09T21:15:54.022Z,50.87
2018-10-09T21:18:23.675Z,51.60
2018-10-09T21:20:53.115Z,52.47
2018-10-09T21:23:22.453Z,52.37
2018-10-09T21:25:51.252Z,50.73
2018-10-09T21:28:21.425Z,50.63
2018-10-09T21:30:50.570Z,54.50
2018-10-09T21:33:19.749Z,51.23
2018-10-09T21:35:48.958Z,52.97
2018-10-09T21:38:18.090Z,55.67
2018-10-09T21:40:47.193Z,58.47
2018-10-09T21:43:16.905Z,53.00
2018-10-09T21:45:46.162Z,54.80
2018-10-09T21:48:15.618Z,63.67
2018-10-09T21:50:44.649Z,63.13
2018-10-09T21:53:13.758Z,66.60
2018-10-09T21:55:42.865Z,62.90
2018-10-09T21:58:11.986Z,54.37
2018-10-09T22:00:46.298Z,63.93
2018-10-09T22:03:15.425Z,58.83
2018-10-09T22:05:44.526Z,55.20
2018-10-09T22:08:13.658Z,60.40
2018-10-09T22:10:42.782Z,55.53
2018-10-09T22:13:11.912Z,61.00
2018-10-09T22:15:41.102Z,61.97
2018-10-09T22:18:10.250Z,65.10
2018-10-09T22:20:39.368Z,61.23
2018-10-09T22:23:08.534Z,65.70
2018-10-09T22:25:37.798Z,61.10
2018-10-09T22:28:07.398Z,56.80
2018-10-09T22:30:36.134Z,62.90
2018-10-09T22:33:05.287Z,57.63
2018-10-09T22:35:34.582Z,65.33
2018-10-09T22:38:03.754Z,63.43
2018-10-09T22:40:32.922Z,58.10
2018-10-09T22:43:03.802Z,66.20
2018-10-09T22:45:34.326Z,67.07
2018-10-09T22:48:03.430Z,74.77
2018-10-09T22:50:32.557Z,68.33
2018-10-09T22:53:01.682Z,76.87
2018-10-09T22:55:31.534Z,81.90
2018-10-09T22:58:00.645Z,70.17
2018-10-09T23:00:29.738Z,86.07
2018-10-09T23:02:58.846Z,85.07
2018-10-09T23:05:29.670Z,82.83
2018-10-09T23:07:59.602Z,80.67
2018-10-09T23:10:28.926Z,88.40
2018-10-09T23:12:58.425Z,86.57
2018-10-09T23:15:28.593Z,91.97
2018-10-09T23:17:58.325Z,88.73
2018-10-09T23:20:27.418Z,98.63
2018-10-09T23:22:56.531Z,97.23
2018-10-09T23:25:25.767Z,100.60
2018-10-09T23:27:54.958Z,94.23
2018-10-09T23:30:24.217Z,93.53
2018-10-09T23:32:53.434Z,93.47
2018-10-09T23:35:22.658Z,91.80
2018-10-09T23:37:51.991Z,92.03
2018-10-09T23:40:21.161Z,90.00
2018-10-09T23:42:50.926Z,88.77
2018-10-09T23:45:22.498Z,87.87
2018-10-09T23:47:55.747Z,83.20
2018-10-09T23:50:25.551Z,90.63
2018-10-09T23:52:54.633Z,96.67
2018-10-09T23:55:23.749Z,89.37
2018-10-09T23:57:52.860Z,91.07
